createdAt,value
2017-08-23T00:01:56.604Z,12.20
2017-08-23T00:04:24.682Z,12.20
2017-08-23T00:06:52.787Z,12.70
2017-08-23T00:09:20.947Z,12.90
2017-08-23T00:11:49.036Z,12.90
2017-08-23T00:14:17.282Z,12.60
2017-08-23T00:16:45.374Z,12.80
2017-08-23T00:19:13.510Z,12.60
2017-08-23T00:21:41.610Z,12.30
2017-08-23T00:24:09.769Z,12.60
2017-08-23T00:26:37.854Z,12.90
2017-08-23T00:29:05.940Z,12.40
2017-08-23T00:31:34.011Z,12.00
2017-08-23T00:34:02.101Z,12.40
2017-08-23T00:36:30.172Z,12.80
2017-08-23T00:38:58.276Z,12.70
2017-08-23T00:41:26.354Z,12.50
2017-08-23T00:43:54.458Z,12.80
2017-08-23T00:46:22.611Z,12.90
2017-08-23T00:48:50.694Z,13.10
2017-08-23T00:51:18.787Z,13.10
2017-08-23T00:53:46.866Z,12.90
2017-08-23T00:56:14.965Z,13.00
2017-08-23T00:58:43.066Z,12.40
2017-08-23T01:01:11.159Z,12.20
2017-08-23T01:03:39.247Z,12.50
2017-08-23T01:06:07.339Z,12.60
2017-08-23T01:08:35.438Z,12.70
2017-08-23T01:11:03.524Z,12.70
2017-08-23T01:13:31.605Z,12.80
2017-08-23T01:15:59.682Z,12.40
2017-08-23T01:18:27.775Z,12.60
2017-08-23T01:20:55.878Z,12.00
2017-08-23T01:23:23.955Z,12.30
2017-08-23T01:25:52.043Z,12.60
2017-08-23T01:28:20.128Z,12.70
2017-08-23T01:30:48.987Z,12.60
2017-08-23T01:33:17.160Z,12.60
2017-08-23T01:35:45.259Z,12.20
2017-08-23T01:38:13.518Z,12.10
2017-08-23T01:40:41.596Z,12.00
2017-08-23T01:43:09.688Z,11.50
2017-08-23T01:45:37.772Z,12.00
2017-08-23T01:48:05.875Z,12.30
2017-08-23T01:50:33.962Z,12.50
2017-08-23T01:53:02.064Z,12.60
2017-08-23T01:55:30.151Z,12.50
2017-08-23T01:57:58.240Z,11.80
2017-08-23T02:00:26.332Z,11.60
2017-08-23T02:02:54.440Z,11.90
2017-08-23T02:05:22.523Z,12.00
2017-08-23T02:07:50.622Z,12.30
2017-08-23T02:10:18.714Z,11.50
2017-08-23T02:12:46.803Z,11.60
2017-08-23T02:15:14.971Z,12.10
2017-08-23T02:17:43.083Z,12.30
2017-08-23T02:20:11.321Z,12.40
2017-08-23T02:22:39.405Z,12.40
2017-08-23T02:25:08.256Z,12.30
2017-08-23T02:27:36.347Z,12.30
2017-08-23T02:30:05.209Z,12.30
2017-08-23T02:32:33.292Z,12.30
2017-08-23T02:35:01.388Z,12.20
2017-08-23T02:37:30.236Z,12.20
2017-08-23T02:39:58.320Z,12.20
2017-08-23T02:42:26.417Z,12.20
2017-08-23T02:44:55.279Z,12.20
2017-08-23T02:47:23.368Z,12.10
2017-08-23T02:49:51.455Z,12.10
2017-08-23T02:52:20.298Z,12.20
2017-08-23T02:54:48.396Z,12.20
2017-08-23T02:57:16.475Z,11.90
2017-08-23T02:59:45.326Z,11.00
2017-08-23T03:02:13.426Z,11.00
2017-08-23T03:04:41.520Z,11.60
2017-08-23T03:07:09.612Z,11.80
2017-08-23T03:09:37.700Z,11.90
2017-08-23T03:12:05.901Z,11.50
2017-08-23T03:14:34.175Z,11.70
2017-08-23T03:17:02.457Z,11.90
2017-08-23T03:19:30.545Z,12.00
2017-08-23T03:21:58.635Z,11.90
2017-08-23T03:24:26.719Z,11.50
2017-08-23T03:26:54.813Z,11.00
2017-08-23T03:29:22.960Z,10.90
2017-08-23T03:31:51.046Z,11.40
2017-08-23T03:34:19.138Z,11.50
2017-08-23T03:36:47.222Z,11.60
2017-08-23T03:39:15.315Z,11.80
2017-08-23T03:41:43.415Z,11.90
2017-08-23T03:44:11.513Z,12.00
2017-08-23T03:46:39.670Z,11.90
2017-08-23T03:49:07.757Z,11.80
2017-08-23T03:51:35.845Z,11.70
2017-08-23T03:54:04.702Z,11.60
2017-08-23T03:56:32.796Z,11.60
2017-08-23T03:59:00.883Z,11.70
2017-08-23T04:01:28.971Z,11.10
2017-08-23T04:03:57.054Z,11.00
2017-08-23T04:06:25.151Z,10.90
2017-08-23T04:08:53.244Z,10.80
2017-08-23T04:11:21.330Z,10.70
2017-08-23T04:13:50.179Z,11.00
2017-08-23T04:16:18.264Z,10.90
2017-08-23T04:18:46.370Z,11.30
2017-08-23T04:21:15.547Z,11.70
2017-08-23T04:23:43.657Z,11.60
2017-08-23T04:26:11.738Z,11.30
2017-08-23T04:28:39.835Z,11.00
2017-08-23T04:31:07.940Z,11.30
2017-08-23T04:33:36.044Z,11.50
2017-08-23T04:36:04.131Z,11.60
2017-08-23T04:38:32.227Z,11.40
2017-08-23T04:41:00.315Z,11.60
2017-08-23T04:43:28.397Z,11.80
2017-08-23T04:45:56.491Z,12.00
2017-08-23T04:48:24.588Z,11.90
2017-08-23T04:50:52.674Z,11.90
2017-08-23T04:53:20.772Z,11.90
2017-08-23T04:55:49.635Z,12.10
2017-08-23T04:58:17.719Z,12.10
2017-08-23T05:00:45.846Z,12.20
2017-08-23T05:03:13.939Z,12.20
2017-08-23T05:05:42.032Z,12.30
2017-08-23T05:08:10.116Z,12.20
2017-08-23T05:10:38.218Z,12.20
2017-08-23T05:13:06.652Z,12.20
2017-08-23T05:15:34.735Z,12.20
2017-08-23T05:18:02.843Z,12.30
2017-08-23T05:20:30.934Z,12.30
2017-08-23T05:22:59.045Z,12.30
2017-08-23T05:25:27.124Z,12.20
2017-08-23T05:27:55.991Z,11.90
2017-08-23T05:30:24.067Z,11.90
2017-08-23T05:32:52.167Z,12.00
2017-08-23T05:35:20.318Z,11.80
2017-08-23T05:37:48.407Z,12.10
2017-08-23T05:40:16.482Z,12.40
2017-08-23T05:42:44.598Z,12.60
2017-08-23T05:45:12.764Z,12.50
2017-08-23T05:47:40.871Z,12.40
2017-08-23T05:50:08.959Z,12.80
2017-08-23T05:52:37.030Z,13.40
2017-08-23T05:55:05.115Z,13.70
2017-08-23T05:57:33.200Z,14.10
2017-08-23T06:00:01.282Z,14.40
2017-08-23T06:02:29.811Z,14.60
2017-08-23T06:04:58.598Z,14.80
2017-08-23T06:07:27.016Z,14.90
2017-08-23T06:09:55.420Z,15.10
2017-08-23T06:12:24.404Z,15.40
2017-08-23T06:14:52.709Z,15.40
2017-08-23T06:17:20.877Z,15.70
2017-08-23T06:19:48.971Z,15.90
2017-08-23T06:22:17.827Z,16.10
2017-08-23T06:24:46.012Z,16.10
2017-08-23T06:27:14.095Z,16.20
2017-08-23T06:29:42.350Z,16.40
2017-08-23T06:32:10.629Z,16.60
2017-08-23T06:34:38.767Z,16.80
2017-08-23T06:37:06.871Z,16.90
2017-08-23T06:39:34.951Z,17.10
2017-08-23T06:42:03.811Z,17.50
2017-08-23T06:44:31.903Z,17.40
2017-08-23T06:46:59.992Z,17.60
2017-08-23T06:49:28.075Z,17.30
2017-08-23T06:51:56.236Z,17.30
2017-08-23T06:54:24.323Z,17.60
2017-08-23T06:56:52.435Z,17.70
2017-08-23T06:59:20.627Z,17.60
2017-08-23T07:01:48.711Z,17.70
2017-08-23T07:04:17.560Z,18.20
2017-08-23T07:06:45.647Z,18.20
2017-08-23T07:09:13.723Z,18.40
2017-08-23T07:11:41.818Z,18.20
2017-08-23T07:14:10.663Z,18.60
2017-08-23T07:16:38.738Z,18.60
2017-08-23T07:19:06.838Z,18.60
2017-08-23T07:21:35.699Z,19.20
2017-08-23T07:24:03.788Z,19.20
2017-08-23T07:26:31.879Z,19.50
2017-08-23T07:28:59.980Z,19.90
2017-08-23T07:31:28.191Z,19.90
2017-08-23T07:33:56.466Z,20.00
2017-08-23T07:36:24.562Z,20.10
2017-08-23T07:38:52.656Z,20.40
2017-08-23T07:41:20.748Z,20.40
2017-08-23T07:43:48.848Z,20.80
2017-08-23T07:46:17.701Z,21.30
2017-08-23T07:48:45.775Z,21.30
2017-08-23T07:51:13.871Z,21.60
2017-08-23T07:53:41.957Z,21.70
2017-08-23T07:56:10.036Z,22.60
2017-08-23T07:58:38.879Z,23.50
2017-08-23T08:01:06.973Z,23.50
2017-08-23T08:03:35.051Z,23.70
2017-08-23T08:06:03.155Z,23.10
2017-08-23T08:08:31.505Z,23.00
2017-08-23T08:10:59.591Z,22.90
2017-08-23T08:13:28.430Z,23.50
2017-08-23T08:15:56.517Z,23.50
2017-08-23T08:18:24.592Z,24.60
2017-08-23T08:20:52.692Z,25.30
2017-08-23T08:23:21.553Z,24.40
2017-08-23T08:25:49.624Z,24.40
2017-08-23T08:28:17.723Z,24.90
2017-08-23T08:30:45.799Z,24.90
2017-08-23T08:33:13.879Z,25.60
2017-08-23T08:35:41.955Z,25.30
2017-08-23T08:38:10.035Z,24.00
2017-08-23T08:40:38.114Z,25.30
2017-08-23T08:43:06.203Z,25.50
2017-08-23T08:45:34.287Z,25.80
2017-08-23T08:48:02.368Z,26.10
2017-08-23T08:50:30.459Z,27.10
2017-08-23T08:52:58.883Z,28.00
2017-08-23T08:55:26.985Z,27.90
2017-08-23T08:57:55.156Z,28.10
2017-08-23T09:00:23.426Z,27.90
2017-08-23T09:02:51.497Z,28.30
2017-08-23T09:05:19.582Z,26.90
2017-08-23T09:07:47.712Z,25.60
2017-08-23T09:10:15.803Z,26.30
2017-08-23T09:12:43.879Z,27.70
2017-08-23T09:15:11.951Z,27.10
2017-08-23T09:17:40.024Z,27.10
2017-08-23T09:20:08.112Z,27.70
2017-08-23T09:22:36.967Z,28.30
2017-08-23T09:25:05.052Z,28.20
2017-08-23T09:27:33.122Z,26.40
2017-08-23T09:30:01.202Z,25.50
2017-08-23T09:32:30.042Z,27.10
2017-08-23T09:34:58.143Z,27.10
2017-08-23T09:37:26.215Z,27.00
2017-08-23T09:39:54.319Z,28.10
2017-08-23T09:42:22.451Z,26.60
2017-08-23T09:44:50.535Z,28.30
2017-08-23T09:47:18.791Z,26.50
2017-08-23T09:49:46.871Z,26.40
2017-08-23T09:52:14.963Z,27.10
2017-08-23T09:54:43.089Z,27.60
2017-08-23T09:57:11.289Z,26.00
2017-08-23T09:59:39.555Z,26.00
2017-08-23T10:02:07.727Z,26.00
2017-08-23T10:04:35.803Z,25.90
2017-08-23T10:07:03.902Z,27.30
2017-08-23T10:09:32.775Z,27.60
2017-08-23T10:12:00.858Z,27.60
2017-08-23T10:14:28.943Z,27.00
2017-08-23T10:16:57.044Z,26.70
2017-08-23T10:19:25.344Z,27.20
2017-08-23T10:21:53.515Z,26.20
2017-08-23T10:24:21.604Z,28.90
2017-08-23T10:26:49.679Z,29.10
2017-08-23T10:29:18.860Z,28.00
2017-08-23T10:31:46.946Z,27.90
2017-08-23T10:34:15.043Z,28.90
2017-08-23T10:36:43.123Z,30.10
2017-08-23T10:39:11.215Z,27.20
2017-08-23T10:41:39.403Z,29.60
2017-08-23T10:44:07.489Z,28.00
2017-08-23T10:46:35.554Z,28.80
2017-08-23T10:49:03.640Z,29.50
2017-08-23T10:51:31.721Z,29.40
2017-08-23T10:53:59.856Z,29.10
2017-08-23T10:56:27.947Z,27.90
2017-08-23T10:58:56.039Z,30.40
2017-08-23T11:01:24.379Z,29.60
2017-08-23T11:03:52.531Z,30.20
2017-08-23T11:06:20.722Z,29.10
2017-08-23T11:08:48.822Z,28.90
2017-08-23T11:11:16.895Z,30.80
2017-08-23T11:13:44.977Z,31.60
2017-08-23T11:16:13.051Z,32.30
2017-08-23T11:18:41.122Z,32.80
2017-08-23T11:21:09.205Z,30.70
2017-08-23T11:23:37.288Z,29.00
2017-08-23T11:26:05.371Z,28.60
2017-08-23T11:28:33.439Z,27.50
2017-08-23T11:31:01.524Z,27.90
2017-08-23T11:33:29.605Z,28.20
2017-08-23T11:35:57.683Z,28.90
2017-08-23T11:38:25.756Z,30.90
2017-08-23T11:40:53.843Z,28.80
2017-08-23T11:43:21.927Z,28.60
2017-08-23T11:45:50.024Z,29.30
2017-08-23T11:48:18.098Z,31.10
2017-08-23T11:50:46.175Z,32.00
2017-08-23T11:53:14.274Z,32.40
2017-08-23T11:55:42.332Z,32.90
2017-08-23T11:58:10.420Z,32.60
2017-08-23T12:00:39.260Z,31.20
2017-08-23T12:03:07.342Z,31.10
2017-08-23T12:05:35.633Z,29.70
2017-08-23T12:08:03.720Z,29.30
2017-08-23T12:10:31.791Z,30.20
2017-08-23T12:12:59.865Z,31.40
2017-08-23T12:15:28.717Z,32.00
2017-08-23T12:17:56.807Z,31.90
2017-08-23T12:20:24.891Z,32.20
2017-08-23T12:22:52.990Z,29.40
2017-08-23T12:25:21.058Z,30.40
2017-08-23T12:27:49.134Z,31.50
2017-08-23T12:30:17.216Z,30.70
2017-08-23T12:32:45.291Z,30.00
2017-08-23T12:35:13.379Z,29.60
2017-08-23T12:37:41.464Z,29.20
2017-08-23T12:40:09.551Z,29.30
2017-08-23T12:42:37.626Z,29.10
2017-08-23T12:45:06.603Z,29.30
2017-08-23T12:47:34.744Z,29.30
2017-08-23T12:50:02.832Z,30.50
2017-08-23T12:52:30.908Z,28.90
2017-08-23T12:54:58.990Z,30.60
2017-08-23T12:57:27.059Z,30.40
2017-08-23T12:59:55.147Z,30.90
2017-08-23T13:02:24.011Z,31.20
2017-08-23T13:04:52.086Z,31.20
2017-08-23T13:07:20.162Z,31.60
2017-08-23T13:09:48.339Z,32.00
2017-08-23T13:12:16.319Z,30.40
2017-08-23T13:14:44.398Z,29.40
2017-08-23T13:17:12.470Z,30.20
2017-08-23T13:19:40.568Z,30.30
2017-08-23T13:22:08.615Z,30.50
2017-08-23T13:24:36.691Z,30.00
2017-08-23T13:27:04.776Z,29.40
2017-08-23T13:29:32.851Z,28.60
2017-08-23T13:32:00.931Z,28.60
2017-08-23T13:34:29.010Z,28.50
2017-08-23T13:36:57.086Z,29.10
2017-08-23T13:39:25.925Z,28.20
2017-08-23T13:41:54.011Z,28.30
2017-08-23T13:44:22.101Z,28.60
2017-08-23T13:46:50.184Z,27.90
2017-08-23T13:49:18.256Z,28.50
2017-08-23T13:51:46.347Z,28.90
2017-08-23T13:54:14.429Z,28.40
2017-08-23T13:56:42.514Z,28.00
2017-08-23T13:59:10.605Z,27.60
2017-08-23T14:01:38.703Z,27.80
2017-08-23T14:04:06.788Z,27.90
2017-08-23T14:06:34.867Z,27.80
2017-08-23T14:09:02.948Z,27.80
2017-08-23T14:11:31.012Z,27.60
2017-08-23T14:13:59.115Z,27.60
2017-08-23T14:16:27.189Z,27.30
2017-08-23T14:18:55.270Z,26.70
2017-08-23T14:21:23.344Z,26.50
2017-08-23T14:23:52.345Z,26.20
2017-08-23T14:26:20.425Z,26.30
2017-08-23T14:28:48.516Z,26.10
2017-08-23T14:31:16.599Z,25.90
2017-08-23T14:33:45.457Z,25.60
2017-08-23T14:36:13.530Z,25.60
2017-08-23T14:38:41.598Z,25.70
2017-08-23T14:41:09.679Z,25.50
2017-08-23T14:43:38.525Z,25.70
2017-08-23T14:46:06.609Z,25.70
2017-08-23T14:48:34.680Z,25.70
2017-08-23T14:51:02.762Z,25.40
2017-08-23T14:53:30.841Z,25.00
2017-08-23T14:55:58.932Z,25.40
2017-08-23T14:58:27.003Z,25.50
2017-08-23T15:00:55.088Z,25.60
2017-08-23T15:03:23.155Z,25.60
2017-08-23T15:05:51.247Z,25.00
2017-08-23T15:08:19.327Z,25.30
2017-08-23T15:10:47.422Z,25.20
2017-08-23T15:13:15.499Z,25.40
2017-08-23T15:15:43.588Z,25.00
2017-08-23T15:18:11.663Z,25.00
2017-08-23T15:20:39.799Z,25.20
2017-08-23T15:23:07.875Z,25.00
2017-08-23T15:25:36.046Z,24.90
2017-08-23T15:28:04.128Z,25.10
2017-08-23T15:30:32.201Z,24.80
2017-08-23T15:33:00.281Z,24.70
2017-08-23T15:35:28.347Z,24.90
2017-08-23T15:37:56.475Z,24.90
2017-08-23T15:40:24.684Z,25.10
2017-08-23T15:42:52.948Z,25.10
2017-08-23T15:45:21.010Z,25.00
2017-08-23T15:47:49.100Z,25.10
2017-08-23T15:50:17.168Z,25.00
2017-08-23T15:52:45.256Z,24.80
2017-08-23T15:55:14.108Z,24.90
2017-08-23T15:57:42.204Z,24.80
2017-08-23T16:00:10.288Z,24.80
2017-08-23T16:02:38.609Z,24.60
2017-08-23T16:05:06.691Z,24.50
2017-08-23T16:07:34.759Z,24.50
2017-08-23T16:10:02.840Z,24.50
2017-08-23T16:12:30.924Z,24.40
2017-08-23T16:14:59.018Z,24.40
2017-08-23T16:17:27.092Z,24.30
2017-08-23T16:19:55.183Z,24.30
2017-08-23T16:22:23.269Z,24.50
2017-08-23T16:24:51.344Z,24.50
2017-08-23T16:27:19.427Z,24.40
2017-08-23T16:29:47.512Z,24.20
2017-08-23T16:32:15.591Z,24.20
2017-08-23T16:34:43.677Z,24.30
2017-08-23T16:37:11.748Z,24.30
2017-08-23T16:39:39.858Z,24.30
2017-08-23T16:42:07.928Z,24.10
2017-08-23T16:44:36.002Z,24.10
2017-08-23T16:47:04.080Z,24.10
2017-08-23T16:49:32.161Z,24.10
2017-08-23T16:52:00.231Z,24.10
2017-08-23T16:54:28.305Z,24.20
2017-08-23T16:56:56.382Z,24.20
2017-08-23T16:59:24.459Z,24.10
2017-08-23T17:01:52.539Z,24.10
2017-08-23T17:04:20.615Z,24.20
2017-08-23T17:06:48.695Z,24.30
2017-08-23T17:09:16.771Z,24.20
2017-08-23T17:11:44.855Z,24.10
2017-08-23T17:18:20.344Z,24.00
2017-08-23T17:20:48.419Z,23.90
2017-08-23T17:23:16.511Z,23.80
2017-08-23T17:25:44.584Z,23.70
2017-08-23T17:28:12.672Z,23.70
2017-08-23T17:30:40.761Z,23.70
2017-08-23T17:33:08.847Z,23.60
2017-08-23T17:35:36.932Z,23.50
2017-08-23T17:38:05.128Z,23.50
2017-08-23T17:40:33.579Z,23.50
2017-08-23T17:43:01.664Z,23.50
2017-08-23T17:45:29.755Z,23.40
2017-08-23T17:47:57.860Z,23.30
2017-08-23T17:50:25.940Z,23.20
2017-08-23T17:52:54.163Z,23.20
2017-08-23T17:55:22.246Z,23.00
2017-08-23T17:57:50.334Z,22.70
2017-08-23T18:00:18.422Z,22.60
2017-08-23T18:02:46.499Z,22.60
2017-08-23T18:05:14.587Z,22.20
2017-08-23T18:07:42.665Z,22.00
2017-08-23T18:10:10.876Z,22.00
2017-08-23T18:12:38.951Z,21.90
2017-08-23T18:15:07.044Z,21.80
2017-08-23T18:17:35.119Z,21.80
2017-08-23T18:20:03.199Z,21.70
2017-08-23T18:22:31.292Z,21.60
2017-08-23T18:24:59.385Z,21.40
2017-08-23T18:27:27.459Z,21.20
2017-08-23T18:29:55.544Z,21.10
2017-08-23T18:32:23.696Z,20.90
2017-08-23T18:34:52.887Z,20.80
2017-08-23T18:37:20.989Z,20.80
2017-08-23T18:39:49.067Z,20.80
2017-08-23T18:42:17.289Z,20.70
2017-08-23T18:44:45.486Z,20.70
2017-08-23T18:47:13.756Z,20.60
2017-08-23T18:49:41.847Z,20.60
2017-08-23T18:52:10.687Z,20.00
2017-08-23T18:54:39.178Z,20.00
2017-08-23T18:57:07.242Z,20.40
2017-08-23T18:59:35.324Z,20.40
2017-08-23T19:02:03.414Z,20.50
2017-08-23T19:04:31.672Z,20.40
2017-08-23T19:06:59.818Z,20.10
2017-08-23T19:09:27.959Z,20.00
2017-08-23T19:11:56.092Z,20.10
2017-08-23T19:14:24.173Z,19.90
2017-08-23T19:16:52.242Z,19.90
2017-08-23T19:19:20.338Z,20.00
2017-08-23T19:21:48.420Z,19.90
2017-08-23T19:24:16.512Z,19.90
2017-08-23T19:26:44.597Z,20.00
2017-08-23T19:29:12.680Z,20.10
2017-08-23T19:31:40.757Z,20.00
2017-08-23T19:34:08.841Z,19.90
2017-08-23T19:36:36.924Z,19.90
2017-08-23T19:39:05.058Z,19.80
2017-08-23T19:41:33.330Z,19.80
2017-08-23T19:44:01.415Z,19.70
2017-08-23T19:46:29.504Z,19.50
2017-08-23T19:48:58.347Z,19.40
2017-08-23T19:51:26.426Z,19.40
2017-08-23T19:53:54.526Z,19.40
2017-08-23T19:56:23.376Z,19.40
2017-08-23T19:58:51.459Z,19.40
2017-08-23T20:01:19.543Z,19.40
2017-08-23T20:03:48.451Z,19.30
2017-08-23T20:06:17.306Z,19.50
2017-08-23T20:08:45.386Z,19.50
2017-08-23T20:11:13.467Z,19.50
2017-08-23T20:13:41.543Z,19.60
2017-08-23T20:16:09.644Z,19.70
2017-08-23T20:18:37.714Z,19.50
2017-08-23T20:21:05.804Z,19.50
2017-08-23T20:23:33.901Z,19.60
2017-08-23T20:26:01.984Z,19.50
2017-08-23T20:28:30.055Z,19.50
2017-08-23T20:30:58.156Z,19.50
2017-08-23T20:33:26.233Z,19.30
2017-08-23T20:35:54.323Z,19.20
2017-08-23T20:38:22.419Z,19.20
2017-08-23T20:40:50.543Z,19.20
2017-08-23T20:43:18.634Z,19.00
2017-08-23T20:45:46.714Z,19.10
2017-08-23T20:48:14.805Z,19.10
2017-08-23T20:50:42.880Z,19.00
2017-08-23T20:53:11.047Z,19.00
2017-08-23T20:55:39.128Z,18.90
2017-08-23T20:58:07.213Z,18.80
2017-08-23T21:00:35.459Z,18.60
2017-08-23T21:03:03.535Z,18.80
2017-08-23T21:05:31.610Z,19.00
2017-08-23T21:07:59.685Z,19.00
2017-08-23T21:10:27.763Z,19.00
2017-08-23T21:12:55.835Z,19.10
2017-08-23T21:15:23.917Z,19.00
2017-08-23T21:17:52.018Z,18.90
2017-08-23T21:20:20.107Z,18.80
2017-08-23T21:22:48.291Z,18.70
2017-08-23T21:25:16.569Z,18.70
2017-08-23T21:27:44.727Z,18.70
2017-08-23T21:30:12.877Z,18.80
2017-08-23T21:32:40.998Z,18.90
2017-08-23T21:35:09.089Z,18.90
2017-08-23T21:37:37.172Z,18.80
2017-08-23T21:40:05.263Z,18.60
2017-08-23T21:42:33.351Z,18.70
2017-08-23T21:45:01.443Z,18.70
2017-08-23T21:47:29.519Z,18.80
2017-08-23T21:49:57.600Z,18.80
2017-08-23T21:52:25.676Z,18.80
2017-08-23T21:54:53.759Z,18.80
2017-08-23T21:57:21.843Z,18.80
2017-08-23T21:59:49.939Z,18.70
2017-08-23T22:02:18.010Z,18.80
2017-08-23T22:04:46.108Z,18.80
2017-08-23T22:07:14.212Z,18.80
2017-08-23T22:09:42.283Z,18.70
2017-08-23T22:12:10.381Z,18.70
2017-08-23T22:14:38.477Z,18.70
2017-08-23T22:17:06.572Z,18.60
2017-08-23T22:19:34.659Z,18.50
2017-08-23T22:22:02.748Z,18.50
2017-08-23T22:24:30.834Z,18.50
2017-08-23T22:26:58.925Z,18.50
2017-08-23T22:29:27.002Z,18.50
2017-08-23T22:31:55.092Z,18.50
2017-08-23T22:34:23.931Z,18.30
2017-08-23T22:36:52.013Z,18.30
2017-08-23T22:39:20.083Z,18.30
2017-08-23T22:41:48.367Z,18.20
2017-08-23T22:44:16.448Z,18.30
2017-08-23T22:46:44.528Z,18.30
2017-08-23T22:49:12.632Z,18.20
2017-08-23T22:51:40.855Z,18.30
2017-08-23T22:54:09.003Z,18.20
2017-08-23T22:56:37.092Z,18.30
2017-08-23T22:59:05.232Z,18.00
2017-08-23T23:01:33.319Z,18.10
2017-08-23T23:04:01.427Z,18.20
2017-08-23T23:06:29.512Z,18.20
2017-08-23T23:08:57.610Z,18.10
2017-08-23T23:11:25.828Z,18.10
2017-08-23T23:13:53.914Z,18.00
2017-08-23T23:16:21.996Z,17.90
2017-08-23T23:18:50.113Z,17.80
2017-08-23T23:21:18.203Z,17.40
2017-08-23T23:23:46.295Z,17.30
2017-08-23T23:26:15.144Z,16.90
2017-08-23T23:28:43.226Z,16.90
2017-08-23T23:31:11.320Z,16.90
2017-08-23T23:33:39.396Z,16.70
2017-08-23T23:36:08.267Z,16.40
2017-08-23T23:38:36.448Z,16.40
2017-08-23T23:41:04.543Z,16.60
2017-08-23T23:43:32.637Z,16.80
2017-08-23T23:46:00.736Z,16.80
2017-08-23T23:48:28.931Z,16.80
2017-08-23T23:50:57.077Z,16.90
2017-08-23T23:53:25.160Z,16.90
2017-08-23T23:55:53.251Z,16.50
2017-08-23T23:58:22.104Z,16.80
